Time;durP1;ratioP1;P1;durP2;ratioP2;P2;SDS_P1;SDS_P2;PMS_P1;PMS_P2;Temp;Humidity;BMP_temperature;BMP_pressure;BME280_temperature;BME280_humidity;BME280_pressure;Samples;Min_cycle;Max_cycle;Signal;HPM_P1;HPM_P2
2022/12/04 00:01:42;;;;;;;18.10;11.90;;;-6.30;96.20;;;;;;5091925;28;20044;-78
2022/12/04 00:04:09;;;;;;;18.75;9.75;;;-6.50;96.10;;;;;;5094741;28;20035;-79
2022/12/04 00:06:36;;;;;;;21.33;11.70;;;-6.50;96.20;;;;;;5089229;28;20048;-77
2022/12/04 00:09:02;;;;;;;26.17;13.45;;;-6.60;96.30;;;;;;5092051;28;20112;-79
2022/12/04 00:11:31;;;;;;;16.45;8.98;;;-6.60;96.30;;;;;;5092135;28;20031;-78
2022/12/04 00:13:57;;;;;;;16.77;8.57;;;-6.60;96.20;;;;;;5066817;28;20107;-79
2022/12/04 00:16:25;;;;;;;26.50;12.77;;;-6.70;96.10;;;;;;5085083;28;20016;-77
2022/12/04 00:18:51;;;;;;;;;;;-6.80;96.10;;;;;;5089986;28;20035;-79
2022/12/04 00:21:18;;;;;;;16.17;10.70;;;-6.90;96.10;;;;;;5085969;28;19904;-77
2022/12/04 00:23:44;;;;;;;18.98;11.38;;;-7.00;96.20;;;;;;5067053;28;20481;-80
2022/12/04 00:26:16;;;;;;;25.50;12.23;;;-6.90;96.30;;;;;;5089987;28;20016;-79
2022/12/04 00:28:42;;;;;;;20.40;11.05;;;-6.90;96.30;;;;;;5073846;28;20477;-79
2022/12/04 00:31:11;;;;;;;22.58;13.23;;;-6.90;96.30;;;;;;5092856;28;20077;-79
2022/12/04 00:33:37;;;;;;;19.40;11.00;;;-6.90;96.30;;;;;;5087941;28;20738;-78
2022/12/04 00:36:06;;;;;;;19.80;10.48;;;-6.90;96.20;;;;;;5089918;28;20024;-78
2022/12/04 00:38:32;;;;;;;28.00;12.57;;;-7.00;96.10;;;;;;5082695;28;20291;-76
2022/12/04 00:40:59;;;;;;;21.20;9.98;;;-7.10;96.10;;;;;;5091229;28;20491;-78
2022/12/04 00:43:26;;;;;;;30.27;13.18;;;-7.10;96.20;;;;;;5083932;28;20060;-76
2022/12/04 00:45:52;;;;;;;23.42;10.77;;;-7.10;96.30;;;;;;5085173;28;20024;-76
2022/12/04 00:48:19;;;;;;;21.00;11.65;;;-7.20;96.20;;;;;;5080333;28;20035;-77
2022/12/04 00:50:45;;;;;;;18.33;12.88;;;-7.20;96.20;;;;;;5091587;28;20582;-77
2022/12/04 00:53:11;;;;;;;21.60;11.85;;;-7.20;96.20;;;;;;5087832;28;20032;-76
2022/12/04 00:55:38;;;;;;;19.77;11.83;;;-7.20;96.30;;;;;;5091874;28;20028;-78
2022/12/04 00:58:06;;;;;;;23.90;12.93;;;-7.20;96.40;;;;;;5076971;28;20020;-79
2022/12/04 01:00:37;;;;;;;21.20;10.25;;;-7.10;96.50;;;;;;5095462;28;20560;-78
2022/12/04 01:03:03;;;;;;;20.38;11.30;;;-7.10;96.40;;;;;;5095129;28;20062;-80
2022/12/04 01:05:29;;;;;;;19.40;10.25;;;-7.10;96.20;;;;;;5095247;28;20524;-78
2022/12/04 01:07:55;;;;;;;25.33;12.57;;;-7.20;96.10;;;;;;5095169;28;20431;-79
2022/12/04 01:10:21;;;;;;;22.70;14.25;;;-7.20;96.10;;;;;;5076960;28;20020;-78
2022/12/04 01:12:52;;;;;;;18.17;11.70;;;-7.30;96.10;;;;;;5095323;28;20536;-79
2022/12/04 01:15:18;;;;;;;19.42;12.50;;;-7.40;96.20;;;;;;5095103;28;20012;-78
2022/12/04 01:17:44;;;;;;;24.13;11.85;;;-7.40;96.20;;;;;;5095162;28;20104;-78
2022/12/04 01:20:12;;;;;;;19.70;12.63;;;-7.40;96.20;;;;;;5095102;28;20047;-78
2022/12/04 01:22:38;;;;;;;20.95;12.23;;;-7.40;96.10;;;;;;5076778;28;20050;-79
2022/12/04 01:25:05;;;;;;;19.67;11.13;;;-7.50;96.20;;;;;;5095016;28;20028;-79
2022/12/04 01:27:31;;;;;;;14.35;8.75;;;-7.60;96.20;;;;;;5076696;28;20034;-79
2022/12/04 01:29:57;;;;;;;18.15;11.52;;;-7.60;96.30;;;;;;5095999;28;20028;-79
2022/12/04 01:32:23;;;;;;;18.65;10.27;;;-7.70;96.40;;;;;;5096533;28;20027;-81
2022/12/04 01:34:49;;;;;;;20.55;11.48;;;-7.60;96.50;;;;;;5079745;28;20012;-80
2022/12/04 01:37:15;;;;;;;19.00;11.82;;;-7.60;96.40;;;;;;5094996;28;20069;-79
2022/12/04 01:39:40;;;;;;;19.50;11.60;;;-7.70;96.40;;;;;;5076698;28;20016;-79
2022/12/04 01:42:13;;;;;;;18.30;8.30;;;-7.70;96.40;;;;;;5094647;28;20050;-80
2022/12/04 01:44:42;;;;;;;24.40;12.25;;;-7.80;96.40;;;;;;5094758;28;20468;-81
2022/12/04 01:47:10;;;;;;;19.20;12.10;;;-7.80;96.50;;;;;;5088482;28;20035;-79
2022/12/04 01:49:40;;;;;;;25.48;12.98;;;-7.80;96.60;;;;;;5094673;28;20039;-79
2022/12/04 01:52:15;;;;;;;20.73;9.88;;;-7.90;96.50;;;;;;5094729;28;20027;-80
2022/12/04 01:54:45;;;;;;;22.35;11.10;;;-7.90;96.60;;;;;;5094497;28;20016;-79
2022/12/04 01:57:19;;;;;;;21.60;11.65;;;-7.90;96.70;;;;;;5094754;28;20012;-79
2022/12/04 01:59:51;;;;;;;22.88;10.55;;;-7.90;96.70;;;;;;5095545;28;20478;-80
2022/12/04 02:02:23;;;;;;;21.83;11.55;;;-7.90;96.70;;;;;;5076300;28;20413;-80
2022/12/04 02:04:49;;;;;;;20.30;9.50;;;-7.90;96.60;;;;;;5094279;28;20012;-78
2022/12/04 02:07:15;;;;;;;18.02;8.25;;;-8.00;96.60;;;;;;5093738;28;20077;-79
2022/12/04 02:09:41;;;;;;;23.05;11.95;;;-8.00;96.70;;;;;;5094400;28;20024;-79
2022/12/04 02:12:23;;;;;;;20.60;11.32;;;-8.00;96.80;;;;;;5094853;28;20020;-79
2022/12/04 02:14:58;;;;;;;18.58;11.38;;;-8.00;96.70;;;;;;5077384;28;20504;-78
2022/12/04 02:17:52;;;;;;;25.95;14.25;;;-8.00;96.70;;;;;;5094616;28;20053;-79
2022/12/04 02:20:50;;;;;;;19.52;10.90;;;-8.00;96.70;;;;;;5090886;28;20067;-78
2022/12/04 02:23:33;;;;;;;20.90;11.48;;;-8.00;96.80;;;;;;5093935;28;20032;-77
2022/12/04 02:26:27;;;;;;;17.80;11.05;;;-7.90;96.80;;;;;;5093954;28;20044;-79
2022/12/04 02:29:06;;;;;;;22.30;12.43;;;-8.00;96.60;;;;;;5079761;28;20486;-78
2022/12/04 02:31:50;;;;;;;22.85;14.18;;;-8.00;96.70;;;;;;5093966;28;20032;-78
2022/12/04 02:34:27;;;;;;;19.67;8.23;;;-8.00;96.60;;;;;;5093931;28;20020;-78
2022/12/04 02:37:15;;;;;;;21.35;11.07;;;-8.00;96.60;;;;;;5092916;28;20066;-79
2022/12/04 02:39:56;;;;;;;16.80;11.43;;;-8.00;96.60;;;;;;5080382;28;20020;-79
2022/12/04 02:42:33;;;;;;;16.55;10.95;;;-8.10;96.60;;;;;;5093350;28;20032;-79
2022/12/04 02:45:04;;;;;;;18.92;11.68;;;-8.10;96.60;;;;;;5089933;28;20020;-78
2022/12/04 02:47:32;;;;;;;22.35;11.18;;;-8.10;96.70;;;;;;5093408;28;20073;-79
2022/12/04 02:50:00;;;;;;;19.48;11.98;;;-8.20;96.70;;;;;;5094093;28;20487;-78
2022/12/04 02:52:35;;;;;;;23.33;11.60;;;-8.10;96.70;;;;;;5093504;28;20384;-78
2022/12/04 02:55:20;;;;;;;23.90;11.95;;;-8.10;96.70;;;;;;5091968;28;20035;-79
2022/12/04 02:57:50;;;;;;;24.08;10.82;;;-8.10;96.70;;;;;;5093060;28;20056;-80
2022/12/04 03:00:17;;;;;;;26.05;12.35;;;-8.10;96.60;;;;;;5092993;28;20425;-79
2022/12/04 03:03:00;;;;;;;17.70;10.75;;;-8.20;96.50;;;;;;5093351;28;20052;-78
2022/12/04 03:05:37;;;;;;;11.85;7.53;;;-8.20;96.60;;;;;;5096319;28;20020;-79
2022/12/04 03:08:12;;;;;;;18.00;10.10;;;-8.30;96.50;;;;;;5093058;28;20111;-78
2022/12/04 03:10:45;;;;;;;18.67;8.90;;;-8.30;96.50;;;;;;5092240;28;20083;-78
2022/12/04 03:13:33;;;;;;;16.02;9.10;;;-8.40;96.60;;;;;;5075081;28;20388;-78
2022/12/04 03:16:16;;;;;;;23.45;10.55;;;-8.40;96.60;;;;;;5093065;28;20020;-80
2022/12/04 03:18:48;;;;;;;19.27;10.77;;;-8.40;96.70;;;;;;5078106;28;20107;-79
2022/12/04 03:21:20;;;;;;;19.48;11.23;;;-8.40;96.60;;;;;;5092835;28;20020;-80
2022/12/04 03:23:51;;;;;;;21.13;9.50;;;-8.40;96.70;;;;;;5092537;28;20028;-80
2022/12/04 03:26:37;;;;;;;17.95;10.00;;;-8.50;96.60;;;;;;5092363;28;20023;-80
2022/12/04 03:29:12;;;;;;;20.10;10.07;;;-8.50;96.90;;;;;;5081601;28;20028;-79
2022/12/04 03:31:58;;;;;;;16.88;9.25;;;-8.50;96.60;;;;;;5093353;28;20061;-80
2022/12/04 03:34:58;;;;;;;19.85;10.30;;;-8.50;96.60;;;;;;5093172;28;20069;-79
2022/12/04 03:37:38;;;;;;;29.90;11.18;;;-8.50;96.60;;;;;;5088819;28;20028;-80
2022/12/04 03:40:14;;;;;;;21.52;9.98;;;-8.50;96.60;;;;;;5092465;28;20028;-80
2022/12/04 03:42:47;;;;;;;22.33;10.95;;;-8.50;96.60;;;;;;5092103;28;20036;-80
2022/12/04 03:45:30;;;;;;;20.38;10.88;;;-8.60;96.60;;;;;;5092633;28;20467;-77
2022/12/04 03:48:02;;;;;;;12.55;7.53;;;-8.60;96.60;;;;;;5092416;28;20082;-80
2022/12/04 03:50:36;;;;;;;17.67;9.88;;;-8.60;96.60;;;;;;5074407;28;20400;-78
2022/12/04 03:53:15;;;;;;;23.30;10.52;;;-8.60;96.60;;;;;;5093001;28;20035;-79
2022/12/04 03:55:49;;;;;;;23.65;9.20;;;-8.60;96.60;;;;;;5092808;28;20047;-80
2022/12/04 03:58:26;;;;;;;21.17;12.20;;;-8.60;96.60;;;;;;5075251;28;20028;-79
2022/12/04 04:00:53;;;;;;;;;;;-8.60;96.60;;;;;;5092280;28;20050;-79
2022/12/04 04:03:24;;;;;;;31.05;13.25;;;-8.60;96.60;;;;;;5093129;28;19947;-79
2022/12/04 04:05:54;;;;;;;19.98;9.40;;;-8.60;96.60;;;;;;5094502;28;20639;-80
2022/12/04 04:08:26;;;;;;;21.83;11.77;;;-8.50;96.70;;;;;;5092315;28;20027;-77
2022/12/04 04:10:58;;;;;;;23.67;12.45;;;-8.60;96.50;;;;;;5092271;28;20016;-79
2022/12/04 04:24:47;;;;;;;21.52;11.75;;;-8.70;96.50;;;;;;5092316;28;20174;-78
2022/12/04 04:27:13;;;;;;;18.83;9.88;;;-8.70;96.50;;;;;;5059878;28;20441;-78
2022/12/04 04:29:40;;;;;;;22.45;9.65;;;-8.70;96.60;;;;;;5092288;28;20413;-78
2022/12/04 04:32:33;;;;;;;;;;;-8.70;96.60;;;;;;5096946;28;20028;-79
2022/12/04 04:35:32;;;;;;;20.08;9.95;;;-8.70;96.50;;;;;;5098494;28;20385;-77
2022/12/04 04:38:10;;;;;;;12.35;8.35;;;-8.80;96.40;;;;;;5083140;28;20524;-78
2022/12/04 04:40:52;;;;;;;20.20;9.07;;;-8.80;96.50;;;;;;5096429;28;20030;-79
2022/12/04 04:43:33;;;;;;;20.83;11.32;;;-8.80;96.50;;;;;;5085252;28;20034;-78
2022/12/04 04:46:02;;;;;;;19.00;10.07;;;-8.80;96.60;;;;;;5096498;28;20477;-79
2022/12/04 04:48:50;;;;;;;27.05;12.95;;;-8.80;96.60;;;;;;5095886;28;20028;-80
2022/12/04 04:51:16;;;;;;;18.48;9.45;;;-8.70;96.70;;;;;;5077450;28;20012;-79
2022/12/04 04:54:05;;;;;;;21.60;10.60;;;-8.70;96.70;;;;;;5093655;28;20511;-80
2022/12/04 04:56:31;;;;;;;19.92;9.05;;;-8.70;96.70;;;;;;5095761;28;20017;-79
2022/12/04 04:58:57;;;;;;;19.60;10.38;;;-8.60;96.70;;;;;;5077263;28;20081;-81
2022/12/04 05:01:27;;;;;;;19.55;9.00;;;-8.60;96.70;;;;;;5096267;28;20075;-79
2022/12/04 05:03:53;;;;;;;19.40;9.88;;;-8.60;96.50;;;;;;5095908;28;20032;-79
2022/12/04 05:06:19;;;;;;;18.17;9.60;;;-8.60;96.50;;;;;;5095410;28;20024;-80
2022/12/04 05:08:46;;;;;;;20.58;10.52;;;-8.60;96.50;;;;;;5094515;28;20024;-80
2022/12/04 05:11:13;;;;;;;21.05;11.10;;;-8.60;96.40;;;;;;5095327;28;20059;-79
2022/12/04 05:13:39;;;;;;;26.00;10.25;;;-8.60;96.40;;;;;;5095345;28;20020;-79
2022/12/04 05:16:11;;;;;;;15.85;9.60;;;-8.50;96.50;;;;;;5095218;28;20020;-81
2022/12/04 05:18:37;;;;;;;18.65;8.32;;;-8.50;96.40;;;;;;5076995;28;20400;-79
2022/12/04 05:21:18;;;;;;;21.13;10.93;;;-8.60;96.00;;;;;;5095344;28;20056;-80
2022/12/04 05:23:43;;;;;;;21.10;11.57;;;-8.60;96.10;;;;;;5094930;28;20112;-81
2022/12/04 05:26:10;;;;;;;15.23;8.43;;;-8.70;96.00;;;;;;5094648;28;20058;-78
2022/12/04 05:28:36;;;;;;;14.80;8.93;;;-8.70;96.10;;;;;;5095325;28;20027;-79
2022/12/04 05:31:03;;;;;;;16.10;8.47;;;-8.70;96.10;;;;;;5094696;28;20892;-79
2022/12/04 05:33:29;;;;;;;14.55;8.60;;;-8.70;96.20;;;;;;5095097;28;20499;-76
2022/12/04 05:35:59;;;;;;;17.80;9.20;;;-8.70;96.10;;;;;;5094823;28;20031;-79
2022/12/04 05:38:25;;;;;;;21.65;11.20;;;-8.70;96.20;;;;;;5077064;28;20024;-78
2022/12/04 05:40:51;;;;;;;22.23;10.65;;;-8.80;96.20;;;;;;5066774;28;20036;-81
2022/12/04 05:43:17;;;;;;;13.88;6.30;;;-8.80;96.20;;;;;;5093706;28;20032;-80
2022/12/04 05:45:43;;;;;;;19.65;10.18;;;-8.80;96.20;;;;;;5094643;28;20469;-79
2022/12/04 05:48:09;;;;;;;18.17;8.48;;;-8.80;96.10;;;;;;5094731;28;20515;-80
2022/12/04 05:50:36;;;;;;;19.63;12.25;;;-8.80;96.10;;;;;;5097791;28;20028;-79
2022/12/04 05:53:02;;;;;;;;;;;-8.80;96.20;;;;;;5095135;28;20755;-78
2022/12/04 05:55:28;;;;;;;36.70;12.53;;;-8.90;96.10;;;;;;5076332;28;19954;-78
2022/12/04 05:57:53;;;;;;;13.93;7.78;;;-8.80;96.10;;;;;;5091265;28;20047;-79
2022/12/04 06:00:20;;;;;;;21.75;9.90;;;-8.90;96.10;;;;;;5092866;28;20028;-80
2022/12/04 06:02:45;;;;;;;18.35;10.27;;;-8.90;96.30;;;;;;5083777;28;20044;-80
2022/12/04 06:05:11;;;;;;;23.80;10.90;;;-8.80;96.10;;;;;;5098065;28;20027;-80
2022/12/04 06:07:37;;;;;;;11.88;6.53;;;-8.90;96.20;;;;;;5083917;28;20455;-79
2022/12/04 06:10:04;;;;;;;19.98;9.02;;;-8.80;96.20;;;;;;5094557;28;20099;-79
2022/12/04 06:12:30;;;;;;;19.85;10.00;;;-8.90;96.20;;;;;;5094954;28;20024;-80
2022/12/04 06:14:56;;;;;;;17.63;8.93;;;-8.80;96.30;;;;;;5093562;28;20043;-79
2022/12/04 06:17:22;;;;;;;20.13;9.90;;;-8.80;96.20;;;;;;5075053;28;20043;-81
2022/12/04 06:19:48;;;;;;;16.73;10.40;;;-8.80;96.20;;;;;;5090926;28;20024;-80
2022/12/04 06:22:14;;;;;;;21.05;6.60;;;-8.70;96.30;;;;;;5094434;28;20027;-79
2022/12/04 06:24:40;;;;;;;21.80;11.68;;;-8.70;96.20;;;;;;5094332;28;20031;-79
2022/12/04 06:27:09;;;;;;;23.67;9.80;;;-8.70;96.10;;;;;;5094634;28;20031;-81
2022/12/04 06:29:35;;;;;;;23.75;10.18;;;-8.70;96.10;;;;;;5094048;28;20164;-80
2022/12/04 06:32:01;;;;;;;18.90;9.80;;;-8.70;96.20;;;;;;5082938;28;20020;-80
2022/12/04 06:34:27;;;;;;;20.33;10.88;;;-8.60;96.10;;;;;;5075210;28;20097;-79
2022/12/04 06:36:53;;;;;;;10.63;5.93;;;-8.60;96.10;;;;;;5093929;28;20446;-79
2022/12/04 06:39:19;;;;;;;23.85;11.70;;;-8.60;96.00;;;;;;5075739;28;20031;-79
2022/12/04 06:41:46;;;;;;;19.50;9.07;;;-8.60;95.80;;;;;;5075670;28;20396;-80
2022/12/04 06:44:14;;;;;;;15.73;7.82;;;-8.60;95.80;;;;;;5094116;28;20093;-80
2022/12/04 06:46:39;;;;;;;21.63;10.80;;;-8.60;95.90;;;;;;5093999;28;20031;-81
2022/12/04 06:49:05;;;;;;;14.00;8.88;;;-8.60;95.80;;;;;;5093670;28;20397;-79
2022/12/04 06:51:34;;;;;;;17.42;10.00;;;-8.60;95.80;;;;;;5092776;28;20012;-80
2022/12/04 06:54:01;;;;;;;9.73;6.40;;;-8.60;95.80;;;;;;5091054;28;20024;-82
2022/12/04 06:56:31;;;;;;;21.20;10.57;;;-8.50;95.70;;;;;;5075046;28;20054;-81
2022/12/04 06:58:59;;;;;;;17.40;10.07;;;-8.50;95.60;;;;;;5093534;28;20027;-80
2022/12/04 07:01:28;;;;;;;19.15;10.35;;;-8.60;95.50;;;;;;5093338;28;20389;-80
2022/12/04 07:03:55;;;;;;;23.45;11.30;;;-8.50;95.60;;;;;;5093943;28;20035;-78
2022/12/04 07:06:27;;;;;;;15.88;9.05;;;-8.40;95.60;;;;;;5075568;28;20027;-81
2022/12/04 07:08:57;;;;;;;19.17;10.23;;;-8.40;95.60;;;;;;5092676;28;20024;-80
2022/12/04 07:11:23;;;;;;;22.98;7.63;;;-8.30;95.60;;;;;;5093615;28;20024;-80
2022/12/04 07:13:50;;;;;;;16.15;8.98;;;-8.30;95.40;;;;;;5093168;28;20022;-80
2022/12/04 07:16:18;;;;;;;18.30;10.05;;;-8.30;95.30;;;;;;5093216;28;20585;-78
2022/12/04 07:18:44;;;;;;;24.67;11.90;;;-8.30;95.30;;;;;;5094788;28;20507;-79
2022/12/04 07:21:14;;;;;;;17.02;9.90;;;-8.30;95.20;;;;;;5093622;28;20107;-80
2022/12/04 07:23:40;;;;;;;23.75;10.60;;;-8.20;95.30;;;;;;5072120;28;20032;-78
2022/12/04 07:26:08;;;;;;;22.70;11.63;;;-8.20;94.80;;;;;;5095862;28;20020;-81
2022/12/04 07:28:35;;;;;;;22.17;9.82;;;-8.20;95.00;;;;;;5090886;28;20028;-81
2022/12/04 07:31:06;;;;;;;12.18;8.18;;;-8.10;95.20;;;;;;5093498;28;20054;-78
2022/12/04 07:33:33;;;;;;;11.68;6.50;;;-8.00;94.70;;;;;;5083323;28;20064;-82
2022/12/04 07:36:00;;;;;;;20.20;9.15;;;-8.10;94.20;;;;;;5097339;28;20021;-83
2022/12/04 07:38:27;;;;;;;22.08;10.45;;;-8.10;94.30;;;;;;5079045;28;20464;-81
2022/12/04 07:40:58;;;;;;;19.00;10.23;;;-8.00;94.60;;;;;;5074885;28;20440;-81
2022/12/04 07:43:25;;;;;;;17.60;7.72;;;-7.90;94.60;;;;;;5094931;28;20041;-81
2022/12/04 07:45:51;;;;;;;15.63;8.05;;;-7.80;94.50;;;;;;5088733;28;20023;-80
2022/12/04 07:48:17;;;;;;;13.32;6.55;;;-7.80;94.30;;;;;;5096763;28;20035;-80
2022/12/04 07:50:42;;;;;;;11.07;7.43;;;-7.70;94.10;;;;;;5079319;28;20032;-80
2022/12/04 07:53:09;;;;;;;23.63;10.75;;;-7.70;94.00;;;;;;5092582;28;20035;-81
2022/12/04 07:55:35;;;;;;;10.10;7.03;;;-7.40;94.40;;;;;;5074228;28;20035;-79
2022/12/04 07:58:01;;;;;;;18.25;9.13;;;-7.00;94.20;;;;;;5078268;28;20393;-81
2022/12/04 08:00:27;;;;;;;21.23;10.35;;;-6.70;93.90;;;;;;5092382;28;20035;-79
2022/12/04 08:02:53;;;;;;;20.55;9.02;;;-6.30;93.90;;;;;;5087945;28;20043;-82
2022/12/04 08:05:19;;;;;;;20.67;8.52;;;-5.80;93.80;;;;;;5092082;28;20377;-80
2022/12/04 08:07:45;;;;;;;19.60;10.40;;;-5.40;93.20;;;;;;5092626;28;20070;-80
2022/12/04 08:10:11;;;;;;;20.42;9.20;;;-5.10;92.70;;;;;;5092219;28;20020;-81
2022/12/04 08:12:37;;;;;;;12.85;8.15;;;-4.90;91.90;;;;;;5091881;28;20082;-81
2022/12/04 08:15:04;;;;;;;18.63;8.50;;;-5.20;90.20;;;;;;5070650;28;20066;-81
2022/12/04 08:17:30;;;;;;;23.90;8.90;;;-5.30;91.00;;;;;;5092666;28;20469;-82
2022/12/04 08:19:57;;;;;;;21.73;10.77;;;-5.10;91.20;;;;;;5091887;28;20024;-83
2022/12/04 08:22:24;;;;;;;21.08;11.00;;;-4.90;90.70;;;;;;5084575;28;20081;-80
2022/12/04 08:24:49;;;;;;;18.02;9.00;;;-4.70;90.60;;;;;;5091767;28;20027;-81
2022/12/04 08:27:16;;;;;;;14.77;8.73;;;-4.60;90.20;;;;;;5085656;28;20032;-82
2022/12/04 08:29:41;;;;;;;17.33;9.82;;;-4.80;87.90;;;;;;5092750;28;20016;-82
2022/12/04 08:32:07;;;;;;;13.27;8.65;;;-5.00;88.60;;;;;;5088499;28;20031;-82
2022/12/04 08:34:33;;;;;;;12.15;8.45;;;-4.90;89.20;;;;;;5091878;28;20354;-81
2022/12/04 08:36:59;;;;;;;16.48;10.63;;;-4.70;88.90;;;;;;5092135;28;20028;-85
2022/12/04 08:39:25;;;;;;;16.73;7.90;;;-4.70;87.90;;;;;;5073391;28;20016;-81
2022/12/04 08:41:51;;;;;;;18.63;9.73;;;-4.70;87.20;;;;;;5091948;28;20020;-79
2022/12/04 08:44:17;;;;;;;19.58;9.60;;;-5.00;86.00;;;;;;5073640;28;20044;-80
2022/12/04 08:46:43;;;;;;;13.77;7.57;;;-5.10;86.80;;;;;;5092037;28;20024;-77
2022/12/04 08:49:09;;;;;;;14.57;6.70;;;-5.20;86.50;;;;;;5091565;28;20481;-78
2022/12/04 08:51:35;;;;;;;16.40;8.55;;;-5.20;86.90;;;;;;5092075;28;20018;-80
2022/12/04 08:54:06;;;;;;;12.05;7.97;;;-5.30;85.70;;;;;;5091786;28;20024;-79
2022/12/04 08:56:33;;;;;;;20.45;9.73;;;-5.40;85.90;;;;;;5091280;28;20676;-80
2022/12/04 08:59:00;;;;;;;14.25;8.63;;;-5.30;86.70;;;;;;5091428;28;20024;-79
2022/12/04 09:01:27;;;;;;;15.57;6.93;;;-5.20;86.60;;;;;;5089399;28;20109;-81
2022/12/04 09:03:53;;;;;;;20.20;9.52;;;-5.00;86.40;;;;;;5081430;28;20366;-80
2022/12/04 09:06:20;;;;;;;19.48;9.20;;;-4.80;86.10;;;;;;5068509;28;20060;-80
2022/12/04 09:08:49;;;;;;;13.00;7.88;;;-4.70;85.90;;;;;;5089952;28;20016;-80
2022/12/04 09:11:20;;;;;;;18.67;8.82;;;-4.50;85.40;;;;;;5091822;28;20035;-81
2022/12/04 09:13:46;;;;;;;15.75;9.00;;;-4.40;84.80;;;;;;5087302;28;20067;-79
2022/12/04 09:16:23;;;;;;;15.95;9.10;;;-4.30;85.00;;;;;;5088350;28;20024;-81
2022/12/04 09:18:50;;;;;;;15.85;8.98;;;-4.20;84.60;;;;;;5089884;28;20020;-80
2022/12/04 09:21:18;;;;;;;21.10;9.77;;;-4.10;84.10;;;;;;5099372;28;20107;-79
2022/12/04 09:23:44;;;;;;;20.33;8.73;;;-4.00;83.90;;;;;;5086197;28;20385;-79
2022/12/04 09:26:25;;;;;;;16.88;9.50;;;-4.00;82.90;;;;;;5086888;28;20099;-81
2022/12/04 09:28:52;;;;;;;14.68;8.68;;;-4.20;82.80;;;;;;5069257;28;20024;-83
2022/12/04 09:31:21;;;;;;;12.88;8.30;;;-4.30;82.80;;;;;;5097846;28;20039;-81
2022/12/04 09:33:48;;;;;;;17.27;9.82;;;-4.40;83.00;;;;;;5095543;28;20542;-80
2022/12/04 09:36:17;;;;;;;13.95;9.07;;;-4.60;82.80;;;;;;5080912;28;20068;-78
2022/12/04 09:38:44;;;;;;;14.25;7.63;;;-4.70;83.20;;;;;;5091861;28;20024;-78
2022/12/04 09:41:29;;;;;;;14.27;8.27;;;-4.80;83.20;;;;;;5089148;28;20045;-80
2022/12/04 09:44:10;;;;;;;15.82;9.07;;;-4.90;83.30;;;;;;5091933;28;20478;-79
2022/12/04 09:46:57;;;;;;;11.43;6.75;;;-5.00;83.20;;;;;;5070647;28;20087;-79
2022/12/04 09:49:28;;;;;;;14.60;8.27;;;-5.20;83.00;;;;;;5091466;28;20107;-79
2022/12/04 09:52:00;;;;;;;15.70;7.70;;;-5.20;83.50;;;;;;5087207;28;20420;-80
2022/12/04 09:54:31;;;;;;;13.57;7.40;;;-5.30;83.50;;;;;;5094539;28;20044;-80
2022/12/04 09:57:07;;;;;;;13.50;7.50;;;-5.20;84.00;;;;;;5094605;28;20031;-79
2022/12/04 09:59:33;;;;;;;14.80;8.38;;;-5.00;84.20;;;;;;5094522;28;20390;-79
2022/12/04 10:02:08;;;;;;;12.32;7.68;;;-4.70;84.20;;;;;;5093794;28;20040;-78
2022/12/04 10:04:34;;;;;;;16.98;8.88;;;-4.20;84.90;;;;;;5074087;28;20048;-79
2022/12/04 10:07:06;;;;;;;14.55;8.10;;;-3.90;82.80;;;;;;5094267;28;20732;-77
2022/12/04 10:09:44;;;;;;;19.30;9.52;;;-3.30;83.50;;;;;;5094018;28;20432;-77
2022/12/04 10:12:41;;;;;;;20.90;8.88;;;-2.80;82.10;;;;;;5094206;28;20016;-78
2022/12/04 10:15:21;;;;;;;15.63;7.78;;;-2.40;80.70;;;;;;5092843;28;20103;-77
2022/12/04 10:17:56;;;;;;;13.80;9.40;;;-2.10;79.60;;;;;;5076003;28;20064;-78
2022/12/04 10:20:54;;;;;;;15.30;9.38;;;-2.00;78.50;;;;;;5094040;28;20757;-78
2022/12/04 10:23:41;;;;;;;11.63;7.63;;;-2.20;77.30;;;;;;5093546;28;20032;-79
2022/12/04 10:26:14;;;;;;;15.80;8.05;;;-2.70;76.70;;;;;;5093474;28;20481;-80
2022/12/04 10:28:53;;;;;;;13.52;7.88;;;-3.30;77.00;;;;;;5093777;28;20039;-82
2022/12/04 10:31:19;;;;;;;15.57;7.65;;;-3.70;78.00;;;;;;5084327;28;20033;-81
2022/12/04 10:34:15;;;;;;;16.63;8.80;;;-4.00;78.50;;;;;;5096048;28;20020;-80
2022/12/04 10:36:48;;;;;;;13.10;7.53;;;-4.30;79.00;;;;;;5099641;28;20028;-80
2022/12/04 10:39:17;;;;;;;15.25;8.15;;;-4.40;79.20;;;;;;5095316;28;20102;-81
2022/12/04 10:41:52;;;;;;;14.60;8.90;;;-4.70;79.50;;;;;;5094611;28;20081;-81
2022/12/04 10:44:19;;;;;;;16.23;10.02;;;-4.80;80.30;;;;;;5094404;28;20046;-81
2022/12/04 10:46:46;;;;;;;13.20;7.45;;;-4.80;80.80;;;;;;5084625;28;20069;-80
2022/12/04 10:49:27;;;;;;;14.97;8.23;;;-4.80;81.00;;;;;;5093526;28;20455;-79
2022/12/04 10:51:53;;;;;;;9.52;6.65;;;-4.80;81.30;;;;;;5055410;28;20029;-81
2022/12/04 10:54:31;;;;;;;15.32;7.50;;;-4.90;81.20;;;;;;5090985;28;20468;-81
2022/12/04 10:57:02;;;;;;;14.90;9.40;;;-4.90;81.30;;;;;;5093755;28;20028;-81
2022/12/04 10:59:28;;;;;;;14.93;8.50;;;-4.90;81.60;;;;;;5063273;28;20055;-79
2022/12/04 11:02:24;;;;;;;12.07;8.02;;;-4.90;81.90;;;;;;5066593;28;20052;-80
2022/12/04 11:05:04;;;;;;;12.90;9.07;;;-4.90;81.80;;;;;;5096927;28;20127;-80
2022/12/04 11:07:35;;;;;;;14.88;8.85;;;-5.00;81.90;;;;;;5088768;28;20048;-81
2022/12/04 11:10:05;;;;;;;13.95;7.78;;;-5.00;82.10;;;;;;5080510;28;20016;-80
2022/12/04 11:12:31;;;;;;;15.13;7.70;;;-5.00;82.20;;;;;;5093425;28;20367;-80
2022/12/04 11:15:06;;;;;;;20.50;10.35;;;-5.10;82.30;;;;;;5093142;28;20028;-80
2022/12/04 11:17:35;;;;;;;24.33;13.68;;;-5.20;82.60;;;;;;5063288;28;20442;-79
2022/12/04 11:20:05;;;;;;;12.43;8.15;;;-5.30;82.90;;;;;;5060355;28;20027;-80
2022/12/04 11:22:31;;;;;;;14.43;7.25;;;-5.20;83.20;;;;;;5083134;28;20107;-81
2022/12/04 11:25:00;;;;;;;12.68;6.45;;;-5.20;83.40;;;;;;5071218;28;20028;-79
2022/12/04 11:27:33;;;;;;;18.70;7.82;;;-5.20;83.40;;;;;;5092792;28;20016;-79
2022/12/04 11:30:08;;;;;;;25.40;10.20;;;-5.30;83.60;;;;;;5074929;28;20046;-77
2022/12/04 11:32:34;;;;;;;14.55;8.27;;;-5.30;83.80;;;;;;5075576;28;20032;-78
2022/12/04 11:35:16;;;;;;;15.15;8.32;;;-5.30;84.10;;;;;;5074929;28;20496;-79
2022/12/04 11:37:52;;;;;;;17.58;7.78;;;-5.30;84.10;;;;;;5092909;28;20024;-77
2022/12/04 11:40:19;;;;;;;14.52;7.55;;;-5.30;84.20;;;;;;5091797;28;20035;-79
2022/12/04 11:43:02;;;;;;;13.07;8.15;;;-5.40;84.30;;;;;;5092365;28;20028;-79
2022/12/04 11:45:28;;;;;;;16.98;8.57;;;-5.40;84.40;;;;;;5092680;28;20473;-78
2022/12/04 11:47:57;;;;;;;14.60;7.65;;;-5.40;84.60;;;;;;5092698;28;20028;-76
2022/12/04 11:50:59;;;;;;;14.27;10.20;;;-5.50;84.60;;;;;;5093252;28;20475;-77
2022/12/04 11:54:04;;;;;;;17.90;9.25;;;-5.50;84.80;;;;;;5094226;28;20405;-77
2022/12/04 11:57:02;;;;;;;13.55;6.50;;;-5.60;85.10;;;;;;5048751;28;20028;-78
2022/12/04 12:00:03;;;;;;;16.13;8.50;;;-5.60;85.30;;;;;;5088765;28;20047;-77
2022/12/04 12:02:41;;;;;;;22.67;11.32;;;-5.60;85.50;;;;;;5045579;28;20058;-79
2022/12/04 12:05:38;;;;;;;18.15;8.32;;;-5.60;85.60;;;;;;5089865;28;20099;-79
2022/12/04 12:08:33;;;;;;;16.23;8.95;;;-5.70;85.80;;;;;;5074596;28;20020;-78
2022/12/04 12:11:27;;;;;;;16.45;10.68;;;-5.70;86.10;;;;;;5074566;28;20450;-79
2022/12/04 12:14:16;;;;;;;16.98;7.97;;;-5.70;86.40;;;;;;5067628;28;20111;-78
2022/12/04 12:16:54;;;;;;;16.10;7.20;;;-5.80;86.50;;;;;;5091913;28;20021;-79
2022/12/04 12:19:51;;;;;;;16.77;9.63;;;-5.90;86.60;;;;;;5092443;28;20020;-79
2022/12/04 12:22:26;;;;;;;;;;;-5.90;87.00;;;;;;5092900;28;20767;-80
2022/12/04 12:25:09;;;;;;;12.70;8.48;;;-5.90;87.00;;;;;;5091746;28;19914;-78
2022/12/04 12:27:44;;;;;;;17.35;8.15;;;-6.00;87.30;;;;;;5088569;28;20035;-79
2022/12/04 12:30:16;;;;;;;14.20;9.20;;;-6.10;87.50;;;;;;5093055;28;20020;-81
2022/12/04 12:32:54;;;;;;;24.08;10.18;;;-6.10;87.80;;;;;;5088926;28;20031;-79
2022/12/04 12:35:29;;;;;;;13.45;7.57;;;-6.20;88.00;;;;;;5074258;28;20036;-80
2022/12/04 12:38:05;;;;;;;13.57;8.55;;;-6.20;88.30;;;;;;5084631;28;20018;-79
2022/12/04 12:40:39;;;;;;;13.40;7.20;;;-6.30;88.50;;;;;;5067241;28;20035;-83
2022/12/04 12:43:14;;;;;;;18.42;8.13;;;-6.30;88.70;;;;;;5084627;28;20649;-82
2022/12/04 12:46:06;;;;;;;17.58;10.27;;;-6.30;88.90;;;;;;5091930;28;20013;-80
2022/12/04 12:48:50;;;;;;;14.02;7.43;;;-6.40;89.10;;;;;;5074418;28;20039;-82
2022/12/04 12:51:24;;;;;;;12.93;8.18;;;-6.40;89.20;;;;;;5090710;28;20020;-81
2022/12/04 12:53:57;;;;;;;16.95;8.77;;;-6.40;89.40;;;;;;5090922;28;20035;-80
2022/12/04 12:56:32;;;;;;;13.90;8.60;;;-6.50;89.60;;;;;;5090952;28;20039;-77
2022/12/04 12:59:06;;;;;;;18.13;9.18;;;-6.50;89.80;;;;;;5087090;28;20028;-79
2022/12/04 13:01:38;;;;;;;15.13;8.32;;;-6.50;90.00;;;;;;5094976;28;20020;-80
2022/12/04 13:04:20;;;;;;;19.45;8.68;;;-6.60;90.00;;;;;;5096432;28;20035;-79
2022/12/04 13:06:53;;;;;;;18.63;8.73;;;-6.60;90.20;;;;;;5093046;28;20027;-80
2022/12/04 13:09:26;;;;;;;18.83;10.27;;;-6.60;90.30;;;;;;5077571;28;20118;-80